createdAt,value
2023-02-03T00:03:32.024Z,1.90
2023-02-03T00:08:34.006Z,1.90
2023-02-03T00:13:35.992Z,1.80
2023-02-03T00:18:39.186Z,1.70
2023-02-03T00:23:42.179Z,1.70
2023-02-03T00:28:44.466Z,1.60
2023-02-03T00:33:46.974Z,1.60
2023-02-03T00:38:50.092Z,1.60
2023-02-03T00:43:52.019Z,1.70
2023-02-03T00:48:54.001Z,1.70
2023-02-03T00:53:55.894Z,1.70
2023-02-03T00:58:57.960Z,1.70
2023-02-03T01:04:00.141Z,1.80
2023-02-03T01:09:03.052Z,1.80
2023-02-03T01:14:04.950Z,1.70
2023-02-03T01:19:06.993Z,1.70
2023-02-03T01:24:09.687Z,1.70
2023-02-03T01:29:11.849Z,1.70
2023-02-03T01:34:16.452Z,1.70
2023-02-03T01:39:18.473Z,1.60
2023-02-03T01:44:41.788Z,1.60
2023-02-03T01:50:08.259Z,1.50
2023-02-03T01:55:13.444Z,1.50
2023-02-03T02:00:15.579Z,1.50
2023-02-03T02:05:27.800Z,1.60
2023-02-03T02:10:31.241Z,1.50
2023-02-03T02:15:46.368Z,1.60
2023-02-03T02:21:19.142Z,1.60
2023-02-03T02:26:45.712Z,1.70
2023-02-03T02:32:05.373Z,1.70
2023-02-03T02:37:31.515Z,1.80
2023-02-03T02:42:51.524Z,1.90
2023-02-03T02:48:05.137Z,1.90
2023-02-03T02:53:08.424Z,2.00
2023-02-03T02:58:12.768Z,2.00
2023-02-03T03:03:17.523Z,2.10
2023-02-03T03:08:30.362Z,2.10
2023-02-03T03:13:35.995Z,2.10
2023-02-03T03:18:47.087Z,2.10
2023-02-03T03:23:51.757Z,2.10
2023-02-03T03:29:12.330Z,2.10
2023-02-03T03:34:14.847Z,2.10
2023-02-03T03:39:35.704Z,2.10
2023-02-03T03:44:42.006Z,2.00
2023-02-03T03:49:45.954Z,1.90
2023-02-03T03:54:48.831Z,1.90
2023-02-03T03:59:51.337Z,1.80
2023-02-03T04:04:54.262Z,1.80
2023-02-03T04:09:56.092Z,1.70
2023-02-03T04:14:57.935Z,1.70
2023-02-03T04:19:59.807Z,1.70
2023-02-03T04:25:01.786Z,1.70
2023-02-03T04:30:04.567Z,1.70
2023-02-03T04:35:07.516Z,1.70
2023-02-03T04:40:10.037Z,1.70
2023-02-03T04:45:12.483Z,1.70
2023-02-03T04:50:14.437Z,1.80
2023-02-03T04:55:16.271Z,1.80
2023-02-03T05:00:18.387Z,1.90
2023-02-03T05:05:20.367Z,1.90
2023-02-03T05:10:22.270Z,1.90
2023-02-03T05:15:24.146Z,1.90
2023-02-03T05:20:26.256Z,1.90
2023-02-03T05:25:28.425Z,1.80
2023-02-03T05:30:30.810Z,1.80
2023-02-03T05:35:33.480Z,1.80
2023-02-03T05:40:53.840Z,1.80
2023-02-03T05:45:55.693Z,1.80
2023-02-03T05:50:58.244Z,1.80
2023-02-03T05:56:00.091Z,1.70
2023-02-03T06:01:02.003Z,1.80
2023-02-03T06:06:03.887Z,1.80
2023-02-03T06:11:05.776Z,1.80
2023-02-03T06:16:07.938Z,1.70
2023-02-03T06:21:09.857Z,1.70
2023-02-03T06:26:11.975Z,1.70
2023-02-03T06:31:14.058Z,1.80
2023-02-03T06:36:16.025Z,1.70
2023-02-03T06:41:17.873Z,1.80
2023-02-03T06:46:19.730Z,1.80
2023-02-03T06:51:21.622Z,1.90
2023-02-03T06:56:23.485Z,1.90
2023-02-03T07:01:26.078Z,2.00
2023-02-03T07:06:32.402Z,2.10
2023-02-03T07:11:34.378Z,2.30
2023-02-03T07:16:37.548Z,2.40
2023-02-03T07:21:39.396Z,2.50
2023-02-03T07:26:41.329Z,2.60
2023-02-03T07:31:43.368Z,2.70
2023-02-03T07:36:45.389Z,2.80
2023-02-03T07:41:47.253Z,2.90
2023-02-03T07:46:49.148Z,3.00
2023-02-03T07:51:51.215Z,3.00
2023-02-03T07:56:54.151Z,3.10
2023-02-03T08:01:56.436Z,3.20
2023-02-03T08:06:58.344Z,3.30
2023-02-03T08:12:00.177Z,3.40
2023-02-03T08:17:02.030Z,3.40
2023-02-03T08:22:03.887Z,3.50
2023-02-03T08:27:05.825Z,3.60
2023-02-03T08:32:16.462Z,3.70
2023-02-03T08:37:21.095Z,3.80
2023-02-03T08:42:22.959Z,4.00
2023-02-03T08:47:25.923Z,4.10
2023-02-03T08:52:27.803Z,4.20
2023-02-03T08:57:33.179Z,4.40
2023-02-03T09:02:35.161Z,4.50
2023-02-03T09:07:52.145Z,4.60
2023-02-03T09:12:53.987Z,4.60
2023-02-03T09:17:57.447Z,4.70
2023-02-03T09:23:00.367Z,4.70
2023-02-03T09:28:02.879Z,4.80
2023-02-03T09:33:06.240Z,4.80
2023-02-03T09:38:08.097Z,4.90
2023-02-03T09:43:40.542Z,5.00
2023-02-03T09:48:53.282Z,5.10
2023-02-03T09:53:59.895Z,5.20
2023-02-03T09:59:11.051Z,5.30
2023-02-03T10:04:27.962Z,5.40
2023-02-03T10:09:39.887Z,5.50
2023-02-03T10:15:19.461Z,5.60
2023-02-03T10:20:37.574Z,5.70
2023-02-03T10:25:57.174Z,6.00
2023-02-03T10:31:02.245Z,6.20
2023-02-03T10:36:21.234Z,6.20
2023-02-03T10:41:23.618Z,6.30
2023-02-03T10:46:29.609Z,6.40
2023-02-03T10:51:41.816Z,6.40
2023-02-03T10:56:43.663Z,6.40
2023-02-03T11:01:48.115Z,6.50
2023-02-03T11:07:06.005Z,6.50
2023-02-03T11:12:22.165Z,6.50
2023-02-03T11:17:29.661Z,6.50
2023-02-03T11:22:42.605Z,6.50
2023-02-03T11:27:45.545Z,6.40
2023-02-03T11:32:48.378Z,6.40
2023-02-03T11:37:55.499Z,6.30
2023-02-03T11:42:57.375Z,6.20
2023-02-03T11:48:04.408Z,6.10
2023-02-03T11:53:21.788Z,6.00
2023-02-03T11:58:46.635Z,6.00
2023-02-03T12:04:00.623Z,6.10
2023-02-03T12:09:17.936Z,6.10
2023-02-03T12:14:25.310Z,6.00
2023-02-03T12:20:07.017Z,6.00
2023-02-03T12:25:40.600Z,5.90
2023-02-03T12:30:46.867Z,5.80
2023-02-03T12:35:56.284Z,5.70
2023-02-03T12:41:08.900Z,5.70
2023-02-03T12:46:14.886Z,5.70
2023-02-03T12:51:26.237Z,5.70
2023-02-03T12:56:34.224Z,5.80
2023-02-03T13:01:40.514Z,5.90
2023-02-03T13:07:27.522Z,5.90
2023-02-03T13:12:43.077Z,5.90
2023-02-03T13:18:28.246Z,5.90
2023-02-03T13:23:30.162Z,6.00
2023-02-03T13:28:53.121Z,6.10
2023-02-03T13:34:36.660Z,6.10
2023-02-03T13:39:57.902Z,6.10
2023-02-03T13:45:03.179Z,6.10
2023-02-03T13:50:08.555Z,6.00
2023-02-03T13:55:30.012Z,5.90
2023-02-03T14:00:44.427Z,5.90
2023-02-03T14:05:56.252Z,5.90
2023-02-03T14:11:35.189Z,5.90
2023-02-03T14:16:38.863Z,5.80
2023-02-03T14:21:48.001Z,5.80
2023-02-03T14:26:52.158Z,5.80
2023-02-03T14:32:00.079Z,5.70
2023-02-03T14:37:15.048Z,5.80
2023-02-03T14:42:34.614Z,5.80
2023-02-03T14:47:43.908Z,5.80
2023-02-03T14:52:48.525Z,5.70
2023-02-03T14:57:53.308Z,5.80
2023-02-03T15:03:10.322Z,5.80
2023-02-03T15:08:33.236Z,5.80
2023-02-03T15:13:35.153Z,5.70
2023-02-03T15:18:37.711Z,5.70
2023-02-03T15:23:43.194Z,5.70
2023-02-03T15:29:04.500Z,5.70
2023-02-03T15:34:15.425Z,5.70
2023-02-03T15:39:54.774Z,5.70
2023-02-03T15:45:16.968Z,5.70
2023-02-03T15:50:39.628Z,5.70
2023-02-03T15:55:47.727Z,5.70
2023-02-03T16:01:19.773Z,5.70
2023-02-03T16:06:30.356Z,5.70
2023-02-03T16:11:38.142Z,5.80
2023-02-03T16:16:52.155Z,5.70
2023-02-03T16:22:04.608Z,5.70
2023-02-03T16:27:31.167Z,5.80
2023-02-03T16:33:28.827Z,5.80
2023-02-03T16:38:53.527Z,5.80
2023-02-03T16:44:19.674Z,5.80
2023-02-03T16:49:41.136Z,5.80
2023-02-03T16:54:44.068Z,5.80
2023-02-03T16:59:45.858Z,5.80
2023-02-03T17:04:47.650Z,5.90
2023-02-03T17:09:49.516Z,5.90
2023-02-03T17:14:52.320Z,5.90
2023-02-03T17:19:54.120Z,5.90
2023-02-03T17:24:56.024Z,5.90
2023-02-03T17:29:57.860Z,6.00
2023-02-03T17:34:59.673Z,6.00
2023-02-03T17:56:09.675Z,6.00
2023-02-03T18:01:16.192Z,5.90
2023-02-03T18:06:19.943Z,5.70
2023-02-03T18:11:22.925Z,5.70
2023-02-03T18:16:29.412Z,5.60
2023-02-03T18:21:34.178Z,5.60
2023-02-03T18:26:37.218Z,5.50
2023-02-03T18:31:39.386Z,5.40
2023-02-03T18:36:41.366Z,5.30
2023-02-03T18:41:43.315Z,5.20
2023-02-03T18:46:45.183Z,5.00
2023-02-03T18:51:47.126Z,4.90
2023-02-03T18:56:48.964Z,4.80
2023-02-03T19:01:51.074Z,4.80
2023-02-03T19:06:52.997Z,4.80
2023-02-03T19:11:55.090Z,4.90
2023-02-03T19:16:57.013Z,5.00
2023-02-03T19:21:58.866Z,5.10
2023-02-03T19:27:00.707Z,5.10
2023-02-03T19:32:03.175Z,5.10
2023-02-03T19:43:28.676Z,5.10
2023-02-03T19:48:30.456Z,5.20
2023-02-03T19:53:32.325Z,5.10
2023-02-03T19:58:34.501Z,5.10
2023-02-03T20:03:36.316Z,5.00
2023-02-03T20:08:38.210Z,5.00
2023-02-03T20:13:42.101Z,5.00
2023-02-03T20:18:47.206Z,5.00
2023-02-03T20:23:50.078Z,5.00
2023-02-03T20:28:52.006Z,5.00
2023-02-03T20:33:53.822Z,5.00
2023-02-03T20:38:55.640Z,4.90
2023-02-03T20:43:57.486Z,4.80
2023-02-03T20:48:59.272Z,4.80
2023-02-03T20:54:01.165Z,4.70
2023-02-03T20:59:03.853Z,4.60
2023-02-03T21:04:32.460Z,4.60
2023-02-03T21:09:34.246Z,4.50
2023-02-03T21:14:41.159Z,4.50
2023-02-03T21:19:42.960Z,4.50
2023-02-03T21:24:59.171Z,4.50
2023-02-03T21:30:03.656Z,4.60
2023-02-03T21:35:28.043Z,4.70
2023-02-03T21:40:32.832Z,4.80
2023-02-03T21:45:36.749Z,4.80
2023-02-03T21:50:41.639Z,4.90
2023-02-03T21:55:43.598Z,5.00
2023-02-03T22:00:49.051Z,5.00
2023-02-03T22:05:50.937Z,5.10
2023-02-03T22:10:53.602Z,5.30
2023-02-03T22:15:55.906Z,5.40
2023-02-03T22:20:58.522Z,5.40
2023-02-03T22:26:00.466Z,5.50
2023-02-03T22:31:05.709Z,5.60
2023-02-03T22:36:08.145Z,5.60
2023-02-03T22:41:13.921Z,5.70
2023-02-03T22:46:15.796Z,5.70
2023-02-03T22:51:17.710Z,5.80
2023-02-03T22:56:19.575Z,5.80
2023-02-03T23:01:21.514Z,5.70
2023-02-03T23:06:23.317Z,5.70
2023-02-03T23:11:25.178Z,5.80
2023-02-03T23:16:27.170Z,5.80
2023-02-03T23:21:28.994Z,5.80
2023-02-03T23:26:30.786Z,5.90
2023-02-03T23:31:32.677Z,5.90
2023-02-03T23:36:35.104Z,5.80
2023-02-03T23:41:37.190Z,5.80
2023-02-03T23:46:39.029Z,5.80
2023-02-03T23:51:40.882Z,5.80
2023-02-03T23:56:42.853Z,5.80
